createdAt,value
2022-08-03T00:01:35.876Z,3.67
2022-08-03T00:04:39.732Z,3.42
2022-08-03T00:07:42.326Z,3.13
2022-08-03T00:10:44.850Z,2.70
2022-08-03T00:13:47.403Z,3.33
2022-08-03T00:16:49.885Z,3.35
2022-08-03T00:19:53.730Z,2.80
2022-08-03T00:22:56.274Z,3.00
2022-08-03T00:25:58.801Z,3.35
2022-08-03T00:29:01.307Z,3.08
2022-08-03T00:32:03.857Z,3.20
2022-08-03T00:35:09.253Z,3.30
2022-08-03T00:38:13.847Z,3.47
2022-08-03T00:41:16.326Z,3.67
2022-08-03T00:44:18.811Z,3.90
2022-08-03T00:47:21.363Z,3.72
2022-08-03T00:50:27.421Z,3.58
2022-08-03T00:53:30.647Z,3.53
2022-08-03T00:56:33.306Z,3.65
2022-08-03T00:59:36.951Z,3.28
2022-08-03T01:02:40.544Z,3.28
2022-08-03T01:05:54.206Z,3.03
2022-08-03T01:09:09.562Z,3.25
2022-08-03T01:12:19.684Z,3.40
2022-08-03T01:15:30.380Z,3.05
2022-08-03T01:18:39.673Z,3.45
2022-08-03T01:21:55.953Z,3.33
2022-08-03T01:25:07.256Z,2.83
2022-08-03T01:28:23.380Z,3.03
2022-08-03T01:31:33.457Z,3.28
2022-08-03T01:34:42.276Z,2.83
2022-08-03T01:37:48.814Z,3.38
2022-08-03T01:40:54.703Z,2.50
2022-08-03T01:44:29.688Z,2.80
2022-08-03T01:47:25.385Z,2.95
2022-08-03T01:50:30.360Z,3.53
2022-08-03T01:53:34.920Z,2.90
2022-08-03T01:56:38.993Z,3.47
2022-08-03T01:59:43.133Z,3.15
2022-08-03T02:02:50.234Z,3.08
2022-08-03T02:06:11.744Z,3.28
2022-08-03T02:09:20.960Z,2.83
2022-08-03T02:12:25.938Z,2.92
2022-08-03T02:15:29.728Z,3.10
2022-08-03T02:18:35.013Z,2.70
2022-08-03T02:21:57.139Z,2.90
2022-08-03T02:25:01.092Z,2.67
2022-08-03T02:28:09.919Z,3.10
2022-08-03T02:31:16.281Z,2.92
2022-08-03T02:34:25.501Z,3.17
2022-08-03T02:37:32.336Z,3.65
2022-08-03T02:40:34.979Z,3.05
2022-08-03T02:44:05.679Z,3.42
2022-08-03T02:47:08.840Z,3.42
2022-08-03T02:50:14.590Z,3.70
2022-08-03T02:53:18.431Z,2.95
2022-08-03T02:56:23.532Z,3.17
2022-08-03T02:59:29.916Z,4.20
2022-08-03T03:02:33.765Z,3.28
2022-08-03T03:05:53.089Z,3.05
2022-08-03T03:09:00.252Z,3.30
2022-08-03T03:12:04.018Z,3.42
2022-08-03T03:15:07.428Z,4.05
2022-08-03T03:18:10.512Z,3.28
2022-08-03T03:21:17.412Z,3.20
2022-08-03T03:24:21.331Z,3.30
2022-08-03T03:27:24.246Z,3.50
2022-08-03T03:30:27.280Z,3.55
2022-08-03T03:33:29.905Z,3.30
2022-08-03T03:36:33.775Z,3.85
2022-08-03T03:39:37.295Z,3.80
2022-08-03T03:42:39.872Z,3.50
2022-08-03T03:45:43.299Z,3.70
2022-08-03T03:48:45.982Z,3.83
2022-08-03T03:51:49.807Z,3.78
2022-08-03T03:54:53.226Z,3.88
2022-08-03T03:57:57.957Z,3.83
2022-08-03T04:01:01.275Z,3.15
2022-08-03T04:04:23.764Z,3.75
2022-08-03T04:07:46.782Z,3.33
2022-08-03T04:11:08.520Z,3.38
2022-08-03T04:14:14.207Z,3.85
2022-08-03T04:17:19.330Z,3.80
2022-08-03T04:20:22.720Z,3.40
2022-08-03T04:23:28.796Z,3.35
2022-08-03T04:26:34.779Z,3.53
2022-08-03T04:29:44.824Z,3.60
2022-08-03T04:32:52.471Z,3.22
2022-08-03T04:36:02.704Z,3.20
2022-08-03T04:39:11.781Z,3.63
2022-08-03T04:42:15.892Z,3.30
2022-08-03T04:45:20.520Z,3.47
2022-08-03T04:48:23.592Z,3.00
2022-08-03T04:51:26.803Z,3.00
2022-08-03T04:54:30.732Z,3.30
2022-08-03T04:57:33.301Z,3.60
2022-08-03T05:00:35.940Z,3.17
2022-08-03T05:03:38.879Z,3.20
2022-08-03T05:06:47.891Z,2.97
2022-08-03T05:09:57.486Z,2.63
2022-08-03T05:13:04.433Z,2.80
2022-08-03T05:16:06.998Z,3.50
2022-08-03T05:19:09.489Z,3.13
2022-08-03T05:22:11.960Z,3.00
2022-08-03T05:25:19.853Z,2.90
2022-08-03T05:28:23.992Z,2.60
2022-08-03T05:31:26.533Z,2.20
2022-08-03T05:34:29.030Z,2.70
2022-08-03T05:37:31.507Z,2.50
2022-08-03T05:40:35.396Z,2.25
2022-08-03T05:43:37.876Z,2.05
2022-08-03T05:46:40.363Z,1.88
2022-08-03T05:49:42.969Z,2.63
2022-08-03T05:52:46.058Z,2.10
2022-08-03T05:55:54.252Z,2.30
2022-08-03T05:59:07.249Z,2.50
2022-08-03T06:02:19.039Z,2.58
2022-08-03T06:05:21.612Z,2.22
2022-08-03T06:08:24.530Z,2.10
2022-08-03T06:11:28.347Z,2.10
2022-08-03T06:14:30.821Z,2.10
2022-08-03T06:17:37.697Z,2.17
2022-08-03T06:20:40.407Z,1.80
2022-08-03T06:23:52.989Z,1.65
2022-08-03T06:26:58.719Z,2.00
2022-08-03T06:30:01.256Z,2.08
2022-08-03T06:33:03.823Z,2.00
2022-08-03T06:36:10.815Z,2.03
2022-08-03T06:39:14.804Z,2.10
2022-08-03T06:42:18.699Z,1.92
2022-08-03T06:45:23.441Z,1.90
2022-08-03T06:48:25.916Z,1.48
2022-08-03T06:52:04.852Z,1.90
2022-08-03T06:54:51.695Z,1.75
2022-08-03T06:57:55.573Z,1.50
2022-08-03T07:01:02.493Z,1.67
2022-08-03T07:04:05.904Z,1.77
2022-08-03T07:07:08.477Z,1.67
2022-08-03T07:10:12.496Z,1.60
2022-08-03T07:13:16.307Z,1.98
2022-08-03T07:16:18.818Z,1.65
2022-08-03T07:19:21.303Z,2.25
2022-08-03T07:22:23.786Z,1.58
2022-08-03T07:25:26.313Z,1.60
2022-08-03T07:28:30.241Z,1.55
2022-08-03T07:31:34.418Z,1.98
2022-08-03T07:34:37.094Z,1.77
2022-08-03T07:37:39.647Z,1.75
2022-08-03T07:40:46.025Z,1.83
2022-08-03T07:43:50.192Z,1.67
2022-08-03T07:46:52.716Z,1.80
2022-08-03T07:49:56.042Z,1.40
2022-08-03T07:52:59.746Z,1.70
2022-08-03T07:56:02.273Z,1.55
2022-08-03T07:59:09.740Z,1.38
2022-08-03T08:02:12.239Z,1.55
2022-08-03T08:05:14.760Z,1.75
2022-08-03T08:08:17.281Z,1.42
2022-08-03T08:11:22.233Z,1.67
2022-08-03T08:14:26.169Z,1.75
2022-08-03T08:17:28.780Z,1.40
2022-08-03T08:20:32.845Z,1.30
2022-08-03T08:23:42.227Z,1.58
2022-08-03T08:26:45.691Z,1.42
2022-08-03T08:29:55.341Z,1.42
2022-08-03T08:32:59.164Z,1.88
2022-08-03T08:36:01.707Z,1.92
2022-08-03T08:39:04.745Z,1.60
2022-08-03T08:42:07.371Z,1.60
2022-08-03T08:45:12.221Z,1.85
2022-08-03T08:48:15.576Z,1.65
2022-08-03T08:51:21.133Z,1.65
2022-08-03T08:54:24.651Z,1.73
2022-08-03T08:57:42.375Z,1.50
2022-08-03T09:00:48.416Z,1.52
2022-08-03T09:03:51.720Z,1.65
2022-08-03T09:07:18.833Z,1.80
2022-08-03T09:10:21.803Z,1.95
2022-08-03T09:13:24.331Z,1.75
2022-08-03T09:16:28.208Z,1.52
2022-08-03T09:19:31.337Z,1.40
2022-08-03T09:22:34.356Z,1.50
2022-08-03T09:25:38.868Z,2.00
2022-08-03T09:28:59.493Z,1.65
2022-08-03T09:32:05.312Z,1.70
2022-08-03T09:35:09.525Z,1.77
2022-08-03T09:38:16.362Z,1.58
2022-08-03T09:41:19.675Z,1.52
2022-08-03T09:44:35.256Z,1.73
2022-08-03T09:47:44.904Z,1.77
2022-08-03T09:50:58.440Z,1.60
2022-08-03T09:54:20.331Z,1.65
2022-08-03T09:57:24.244Z,1.30
2022-08-03T10:00:26.779Z,1.45
2022-08-03T10:03:32.456Z,1.50
2022-08-03T10:06:34.959Z,1.73
2022-08-03T10:09:38.329Z,1.40
2022-08-03T10:12:41.877Z,1.50
2022-08-03T10:16:21.153Z,1.25
2022-08-03T10:19:10.582Z,1.23
2022-08-03T10:22:15.407Z,1.35
2022-08-03T10:25:18.792Z,1.55
2022-08-03T10:28:23.108Z,1.80
2022-08-03T10:31:26.081Z,1.40
2022-08-03T10:34:35.412Z,1.30
2022-08-03T10:37:42.522Z,1.40
2022-08-03T10:41:02.214Z,1.27
2022-08-03T10:44:07.838Z,1.55
2022-08-03T10:47:11.328Z,1.27
2022-08-03T10:50:16.137Z,1.17
2022-08-03T10:53:35.682Z,1.30
2022-08-03T10:57:13.470Z,1.17
2022-08-03T11:00:18.432Z,1.70
2022-08-03T11:03:20.933Z,1.33
2022-08-03T11:06:26.469Z,1.50
2022-08-03T11:09:42.177Z,1.70
2022-08-03T11:12:46.102Z,1.40
2022-08-03T11:15:50.592Z,1.40
2022-08-03T11:19:01.362Z,1.13
2022-08-03T11:22:06.739Z,1.40
2022-08-03T11:25:09.567Z,1.35
2022-08-03T11:28:33.617Z,1.33
2022-08-03T11:31:56.889Z,1.05
2022-08-03T11:35:10.268Z,1.30
2022-08-03T11:38:14.101Z,1.30
2022-08-03T11:41:44.920Z,1.30
2022-08-03T11:44:48.245Z,1.33
2022-08-03T11:47:54.850Z,1.50
2022-08-03T11:50:57.885Z,1.40
2022-08-03T11:54:03.632Z,1.20
2022-08-03T11:57:06.274Z,1.50
2022-08-03T12:00:26.297Z,1.40
2022-08-03T12:03:34.010Z,1.30
2022-08-03T12:06:54.924Z,1.10
2022-08-03T12:10:10.581Z,1.02
2022-08-03T12:13:56.730Z,1.60
2022-08-03T12:16:35.674Z,0.95
2022-08-03T12:19:43.057Z,1.25
2022-08-03T12:22:45.564Z,1.40
2022-08-03T12:25:49.713Z,1.30
2022-08-03T12:28:52.239Z,1.63
2022-08-03T12:31:56.091Z,1.27
2022-08-03T12:35:01.599Z,1.38
2022-08-03T12:38:04.717Z,1.35
2022-08-03T12:41:13.484Z,1.20
2022-08-03T12:44:16.654Z,1.48
2022-08-03T12:47:19.421Z,1.42
2022-08-03T12:50:31.256Z,1.35
2022-08-03T12:53:35.519Z,1.25
2022-08-03T12:56:57.906Z,1.05
2022-08-03T13:00:21.248Z,1.50
2022-08-03T13:03:39.195Z,1.40
2022-08-03T13:06:44.588Z,1.40
2022-08-03T13:09:48.917Z,1.35
2022-08-03T13:12:53.231Z,1.35
2022-08-03T13:15:55.707Z,1.35
2022-08-03T13:18:58.214Z,1.27
2022-08-03T13:22:03.574Z,1.42
2022-08-03T13:25:08.491Z,1.20
2022-08-03T13:28:14.436Z,1.48
2022-08-03T13:31:17.358Z,1.42
2022-08-03T13:34:22.980Z,1.40
2022-08-03T13:37:26.631Z,1.13
2022-08-03T13:40:35.578Z,1.30
2022-08-03T13:43:45.422Z,1.70
2022-08-03T13:46:49.616Z,1.60
2022-08-03T13:49:59.744Z,1.15
2022-08-03T13:53:03.158Z,1.63
2022-08-03T13:56:05.922Z,1.48
2022-08-03T13:59:11.026Z,1.60
2022-08-03T14:02:13.531Z,1.67
2022-08-03T14:05:16.137Z,1.13
2022-08-03T14:08:18.679Z,1.30
2022-08-03T14:11:21.221Z,1.23
2022-08-03T14:14:25.090Z,1.35
2022-08-03T14:17:42.089Z,1.42
2022-08-03T14:20:50.219Z,1.23
2022-08-03T14:23:56.813Z,1.70
2022-08-03T14:27:08.665Z,1.50
2022-08-03T14:30:13.792Z,1.20
2022-08-03T14:33:16.446Z,1.55
2022-08-03T14:36:18.983Z,1.30
2022-08-03T14:39:23.052Z,1.13
2022-08-03T14:42:25.800Z,1.20
2022-08-03T14:45:29.667Z,1.30
2022-08-03T14:50:33.448Z,1.35
2022-08-03T14:51:54.894Z,1.70
2022-08-03T14:54:57.472Z,1.15
2022-08-03T14:58:02.865Z,1.30
2022-08-03T15:02:06.522Z,1.48
2022-08-03T15:04:30.156Z,1.42
2022-08-03T15:07:32.749Z,1.33
2022-08-03T15:10:44.133Z,1.38
2022-08-03T15:13:47.145Z,1.42
2022-08-03T15:16:50.990Z,1.13
2022-08-03T15:20:00.509Z,1.17
2022-08-03T15:23:17.831Z,1.40
2022-08-03T15:26:30.636Z,1.27
2022-08-03T15:30:06.901Z,1.27
2022-08-03T15:33:00.435Z,1.50
2022-08-03T15:36:03.297Z,1.40
2022-08-03T15:39:06.108Z,1.10
2022-08-03T15:42:08.740Z,1.27
2022-08-03T15:45:12.838Z,1.60
2022-08-03T15:48:17.053Z,1.05
2022-08-03T15:51:20.751Z,1.10
2022-08-03T15:54:23.304Z,1.17
2022-08-03T15:57:25.829Z,1.52
2022-08-03T16:00:33.761Z,1.23
2022-08-03T16:03:37.787Z,1.33
2022-08-03T16:06:40.404Z,1.20
2022-08-03T16:09:43.982Z,1.30
2022-08-03T16:12:47.425Z,1.88
2022-08-03T16:15:50.320Z,1.70
2022-08-03T16:18:54.284Z,1.30
2022-08-03T16:21:56.783Z,1.50
2022-08-03T16:25:00.514Z,1.48
2022-08-03T16:28:07.911Z,1.40
2022-08-03T16:31:15.208Z,1.50
2022-08-03T16:34:19.141Z,1.45
2022-08-03T16:37:38.103Z,1.42
2022-08-03T16:40:41.427Z,1.43
2022-08-03T16:43:43.934Z,1.45
2022-08-03T16:46:46.523Z,1.40
2022-08-03T16:49:54.628Z,1.38
2022-08-03T16:52:58.907Z,1.20
2022-08-03T16:56:03.702Z,1.52
2022-08-03T16:59:08.143Z,1.58
2022-08-03T17:02:22.615Z,1.40
2022-08-03T17:05:32.685Z,1.67
2022-08-03T17:08:55.881Z,1.33
2022-08-03T17:11:58.424Z,1.63
2022-08-03T17:15:02.899Z,1.42
2022-08-03T17:18:09.457Z,1.45
2022-08-03T17:21:16.500Z,1.40
2022-08-03T17:24:26.403Z,1.23
2022-08-03T17:28:48.990Z,1.50
2022-08-03T17:31:23.097Z,1.60
2022-08-03T17:34:33.900Z,1.20
2022-08-03T17:37:57.593Z,1.50
2022-08-03T17:41:01.246Z,1.52
2022-08-03T17:44:28.888Z,1.35
2022-08-03T17:51:04.080Z,1.60
2022-08-03T17:54:18.111Z,1.40
2022-08-03T17:57:30.073Z,1.90
2022-08-03T18:01:57.523Z,1.83
2022-08-03T18:04:42.693Z,1.50
2022-08-03T18:07:47.494Z,1.60
2022-08-03T18:10:56.843Z,1.60
2022-08-03T18:14:16.277Z,1.45
2022-08-03T18:17:55.001Z,1.40
2022-08-03T18:20:50.419Z,1.58
2022-08-03T18:23:55.448Z,1.48
2022-08-03T18:27:03.816Z,1.73
2022-08-03T18:30:09.852Z,1.48
2022-08-03T18:34:16.630Z,1.42
2022-08-03T18:36:39.765Z,1.73
2022-08-03T18:39:49.950Z,2.10
2022-08-03T18:42:56.584Z,1.73
2022-08-03T18:46:04.181Z,2.28
2022-08-03T18:49:12.771Z,2.13
2022-08-03T18:52:17.994Z,1.95
2022-08-03T18:55:33.239Z,2.17
2022-08-03T18:58:52.275Z,2.67
2022-08-03T19:02:04.123Z,2.38
2022-08-03T19:05:08.992Z,1.92
2022-08-03T19:08:17.779Z,2.13
2022-08-03T19:11:27.793Z,2.33
2022-08-03T19:14:48.303Z,1.85
2022-08-03T19:17:52.878Z,2.13
2022-08-03T19:20:57.011Z,1.95
2022-08-03T19:24:06.624Z,2.55
2022-08-03T19:27:13.339Z,2.55
2022-08-03T19:30:38.943Z,2.00
2022-08-03T19:33:56.096Z,2.22
2022-08-03T19:37:00.346Z,1.98
2022-08-03T19:40:02.902Z,2.38
2022-08-03T19:43:12.593Z,2.22
2022-08-03T19:46:22.400Z,2.25
2022-08-03T19:50:05.632Z,2.20
2022-08-03T19:52:51.783Z,2.70
2022-08-03T19:55:58.245Z,2.33
2022-08-03T19:59:02.011Z,2.45
2022-08-03T20:02:08.846Z,2.25
2022-08-03T20:05:20.049Z,2.60
2022-08-03T20:08:23.078Z,2.55
2022-08-03T20:14:50.057Z,2.63
2022-08-03T20:17:58.854Z,2.40
2022-08-03T20:21:14.979Z,2.80
2022-08-03T20:24:23.728Z,3.15
2022-08-03T20:27:30.293Z,2.30
2022-08-03T20:30:33.080Z,2.60
2022-08-03T20:33:48.405Z,2.40
2022-08-03T20:36:51.705Z,2.47
2022-08-03T20:39:54.870Z,3.08
2022-08-03T20:42:57.454Z,3.50
2022-08-03T20:46:32.890Z,2.92
2022-08-03T20:49:24.442Z,2.67
2022-08-03T20:52:26.948Z,3.25
2022-08-03T20:55:47.676Z,3.22
2022-08-03T20:58:52.432Z,2.85
2022-08-03T21:01:54.950Z,3.60
2022-08-03T21:05:02.986Z,3.40
2022-08-03T21:08:08.602Z,3.30
2022-08-03T21:11:18.244Z,3.95
2022-08-03T21:13:04.543Z,1.55
2022-08-03T21:13:09.605Z,2.55
2022-08-03T21:14:25.785Z,3.72
2022-08-03T21:17:40.665Z,4.68
2022-08-03T21:20:47.350Z,3.80
2022-08-03T21:23:52.594Z,3.60
2022-08-03T21:26:55.954Z,4.03
2022-08-03T21:30:01.867Z,3.58
2022-08-03T21:33:06.572Z,3.63
2022-08-03T21:36:11.129Z,3.88
2022-08-03T21:39:13.802Z,3.95
2022-08-03T21:42:16.504Z,4.60
2022-08-03T21:45:19.270Z,5.07
2022-08-03T21:48:24.912Z,5.05
2022-08-03T21:51:32.512Z,4.30
2022-08-03T21:54:37.260Z,4.20
2022-08-03T21:57:40.910Z,3.65
2022-08-03T22:00:44.376Z,4.35
2022-08-03T22:03:51.106Z,4.20
2022-08-03T22:06:58.759Z,5.32
2022-08-03T22:10:03.450Z,4.32
2022-08-03T22:13:06.023Z,4.82
2022-08-03T22:16:09.962Z,5.20
2022-08-03T22:19:12.587Z,4.97
2022-08-03T22:22:19.552Z,4.07
2022-08-03T22:25:24.067Z,4.40
2022-08-03T22:28:31.548Z,4.65
2022-08-03T22:31:57.517Z,5.10
2022-08-03T22:34:57.504Z,4.40
2022-08-03T22:38:06.293Z,4.57
2022-08-03T22:41:09.044Z,5.65
2022-08-03T22:44:11.566Z,4.50
2022-08-03T22:47:14.747Z,5.03
2022-08-03T22:50:32.378Z,4.43
2022-08-03T22:53:39.408Z,5.50
2022-08-03T22:56:42.498Z,5.00
2022-08-03T22:59:47.210Z,4.65
2022-08-03T23:02:50.181Z,5.00
2022-08-03T23:06:02.232Z,4.68
2022-08-03T23:09:09.568Z,4.47
2022-08-03T23:12:15.234Z,4.00
2022-08-03T23:15:18.701Z,4.95
2022-08-03T23:18:22.527Z,5.43
2022-08-03T23:21:51.284Z,5.40
2022-08-03T23:24:53.239Z,4.68
2022-08-03T23:28:04.945Z,4.80
2022-08-03T23:31:08.965Z,5.40
2022-08-03T23:34:32.626Z,4.72
2022-08-03T23:38:04.118Z,5.60
2022-08-03T23:41:01.961Z,5.70
2022-08-03T23:44:05.457Z,5.45
2022-08-03T23:47:09.123Z,5.72
2022-08-03T23:50:12.252Z,5.75
2022-08-03T23:53:23.021Z,5.80
2022-08-03T23:56:38.267Z,5.70
2022-08-03T23:59:52.530Z,5.40
